Time;durP1;ratioP1;P1;durP2;ratioP2;P2;SDS_P1;SDS_P2;PMS_P1;PMS_P2;Temp;Humidity;BMP_temperature;BMP_pressure;BME280_temperature;BME280_humidity;BME280_pressure;Samples;Min_cycle;Max_cycle;Signal;HPM_P1;HPM_P2
2021/06/23 00:02:17;;;;;;;44.90;33.60;;;14.00;99.90;;;;;;5076914;28;20462;-85
2021/06/23 00:04:44;;;;;;;48.20;34.60;;;14.00;99.90;;;;;;5082779;28;20445;-85
2021/06/23 00:07:11;;;;;;;46.30;33.77;;;14.00;99.90;;;;;;5087156;28;20468;-87
2021/06/23 00:09:39;;;;;;;49.17;33.00;;;14.10;99.90;;;;;;5085879;28;21164;-84
2021/06/23 00:12:13;;;;;;;48.43;32.43;;;14.10;99.90;;;;;;5069825;28;20466;-84
2021/06/23 00:14:41;;;;;;;41.00;31.80;;;14.10;99.90;;;;;;5072484;28;20488;-84
2021/06/23 00:17:07;;;;;;;47.30;35.00;;;14.10;99.90;;;;;;5082591;28;20583;-85
2021/06/23 00:19:36;;;;;;;43.27;33.10;;;14.10;99.90;;;;;;5072463;28;20976;-84
2021/06/23 00:22:03;;;;;;;47.90;34.67;;;14.10;99.90;;;;;;5077331;28;20461;-87
2021/06/23 00:24:30;;;;;;;48.87;33.60;;;14.10;99.90;;;;;;5089762;28;20437;-86
2021/06/23 00:26:56;;;;;;;45.40;33.40;;;14.10;99.90;;;;;;5086162;28;20815;-85
2021/06/23 00:29:23;;;;;;;51.00;36.07;;;14.10;99.90;;;;;;5087964;28;20462;-86
2021/06/23 00:31:50;;;;;;;45.50;35.13;;;14.10;99.90;;;;;;5082016;28;20802;-84
2021/06/23 00:34:23;;;;;;;46.20;32.20;;;14.10;99.90;;;;;;5075716;28;20480;-84
2021/06/23 00:36:51;;;;;;;44.03;32.37;;;14.10;99.90;;;;;;5051614;28;20506;-84
2021/06/23 00:39:18;;;;;;;46.27;31.50;;;14.10;99.90;;;;;;5080303;28;20458;-85
2021/06/23 00:41:45;;;;;;;51.20;34.07;;;14.10;99.90;;;;;;5082439;28;20459;-83
2021/06/23 00:44:13;;;;;;;52.07;34.60;;;14.10;99.90;;;;;;5091702;28;20889;-85
2021/06/23 00:46:40;;;;;;;48.80;35.57;;;14.10;99.90;;;;;;5080612;28;20486;-83
2021/06/23 00:49:07;;;;;;;52.10;36.30;;;14.10;99.90;;;;;;5088148;28;20457;-85
2021/06/23 00:51:34;;;;;;;42.73;30.60;;;14.10;99.90;;;;;;5093156;28;20949;-84
2021/06/23 00:54:08;;;;;;;47.10;34.27;;;14.20;99.90;;;;;;5084120;28;21007;-86
2021/06/23 00:56:37;;;;;;;46.43;34.37;;;14.10;99.90;;;;;;5066513;28;20481;-86
2021/06/23 00:59:05;;;;;;;45.63;32.97;;;14.10;99.90;;;;;;5078930;28;20462;-84
2021/06/23 01:01:35;;;;;;;45.27;33.90;;;14.10;99.90;;;;;;5078766;28;20449;-84
2021/06/23 01:04:03;;;;;;;49.03;33.20;;;14.10;99.90;;;;;;5072080;28;20445;-85
2021/06/23 01:06:32;;;;;;;45.87;32.87;;;14.10;99.90;;;;;;5086041;28;20473;-85
2021/06/23 01:08:59;;;;;;;45.20;32.33;;;14.10;99.90;;;;;;5092635;28;20533;-85
2021/06/23 01:11:29;;;;;;;43.90;31.80;;;14.10;99.90;;;;;;5092055;28;20468;-87
2021/06/23 01:13:59;;;;;;;43.67;30.10;;;14.10;99.90;;;;;;5067543;28;20873;-84
2021/06/23 01:16:27;;;;;;;48.83;34.67;;;14.10;99.90;;;;;;5062382;28;20653;-85
2021/06/23 01:18:56;;;;;;;40.27;30.67;;;14.10;99.90;;;;;;5091486;28;20460;-85
2021/06/23 01:21:22;;;;;;;40.90;31.10;;;14.20;99.90;;;;;;5074210;28;20457;-85
2021/06/23 01:23:51;;;;;;;42.00;30.23;;;14.10;99.90;;;;;;5072176;28;20458;-84
2021/06/23 01:26:18;;;;;;;41.63;30.13;;;14.10;99.90;;;;;;5087092;28;20482;-86
2021/06/23 01:28:44;;;;;;;34.50;29.30;;;14.10;99.90;;;;;;5078963;28;20460;-86
2021/06/23 01:31:12;;;;;;;48.30;30.50;;;14.10;99.90;;;;;;5091344;28;20447;-88
2021/06/23 01:33:39;;;;;;;39.17;29.93;;;14.10;99.90;;;;;;5091675;28;20545;-88
2021/06/23 01:36:06;;;;;;;35.00;27.43;;;14.20;99.90;;;;;;5092812;28;20839;-85
2021/06/23 01:38:33;;;;;;;36.83;28.53;;;14.10;99.90;;;;;;5089441;28;20453;-88
2021/06/23 01:41:02;;;;;;;36.17;27.40;;;14.10;99.90;;;;;;5094317;28;20445;-88
2021/06/23 01:43:29;;;;;;;37.10;28.00;;;14.10;99.90;;;;;;5075252;28;20456;-87
2021/06/23 01:45:56;;;;;;;31.40;26.53;;;14.10;99.90;;;;;;5094450;28;20553;-90
2021/06/23 01:48:24;;;;;;;38.50;26.87;;;14.10;99.90;;;;;;5088420;28;20444;-92
2021/06/23 01:50:53;;;;;;;33.93;27.70;;;14.10;99.90;;;;;;5077364;28;20462;-91
2021/06/23 01:53:20;;;;;;;37.00;26.60;;;14.10;99.90;;;;;;5054476;28;20453;-90
2021/06/23 01:55:49;;;;;;;30.47;24.17;;;14.10;99.90;;;;;;5085996;28;20503;-86
2021/06/23 01:58:18;;;;;;;35.00;26.90;;;14.10;99.90;;;;;;5092254;28;20449;-89
2021/06/23 02:00:54;;;;;;;31.13;24.87;;;14.10;99.90;;;;;;5086929;28;20502;-85
2021/06/23 02:03:43;;;;;;;33.70;25.17;;;14.10;99.90;;;;;;5092617;28;20504;-85
2021/06/23 02:06:29;;;;;;;36.47;26.00;;;14.10;99.90;;;;;;5076478;28;20464;-85
2021/06/23 02:09:07;;;;;;;34.03;27.10;;;14.10;99.90;;;;;;5074658;28;20464;-86
2021/06/23 02:11:40;;;;;;;32.70;25.90;;;14.10;99.90;;;;;;5081843;28;20436;-84
2021/06/23 02:14:31;;;;;;;30.07;23.73;;;14.10;99.90;;;;;;5082717;28;21135;-85
2021/06/23 02:16:59;;;;;;;37.73;25.40;;;14.10;99.90;;;;;;5090831;28;20462;-87
2021/06/23 02:19:26;;;;;;;29.87;22.57;;;14.10;99.90;;;;;;5085423;28;20457;-85
2021/06/23 02:21:53;;;;;;;25.80;22.43;;;14.10;99.90;;;;;;5084456;28;20540;-86
2021/06/23 02:24:20;;;;;;;32.17;23.07;;;14.10;99.90;;;;;;5093004;28;20472;-85
2021/06/23 02:26:47;;;;;;;31.73;22.97;;;14.10;99.90;;;;;;5089701;28;20483;-85
2021/06/23 02:29:15;;;;;;;27.50;23.57;;;14.10;99.90;;;;;;5079173;28;20507;-85
2021/06/23 02:31:42;;;;;;;32.03;25.43;;;14.10;99.90;;;;;;5077696;28;20458;-86
2021/06/23 02:34:14;;;;;;;30.17;24.43;;;14.10;99.90;;;;;;5091572;28;20485;-86
2021/06/23 02:36:42;;;;;;;25.77;23.00;;;14.10;99.90;;;;;;5073699;28;20457;-86
2021/06/23 02:39:10;;;;;;;27.50;22.60;;;14.10;99.90;;;;;;5088027;28;20466;-85
2021/06/23 02:41:38;;;;;;;30.20;22.60;;;14.10;99.90;;;;;;5086042;28;20450;-85
2021/06/23 02:44:06;;;;;;;27.43;24.43;;;14.10;99.90;;;;;;5078157;28;21020;-86
2021/06/23 02:46:35;;;;;;;28.30;22.40;;;14.10;99.90;;;;;;5072011;28;20984;-84
2021/06/23 02:49:03;;;;;;;27.60;22.00;;;14.10;99.90;;;;;;5087181;28;20963;-84
2021/06/23 02:51:36;;;;;;;26.20;22.57;;;14.10;99.90;;;;;;5089882;28;20459;-87
2021/06/23 02:54:03;;;;;;;27.93;22.23;;;14.00;99.90;;;;;;5069180;28;20820;-86
2021/06/23 02:56:31;;;;;;;24.47;21.67;;;14.00;99.90;;;;;;5080496;28;20473;-82
2021/06/23 02:59:00;;;;;;;27.77;23.07;;;14.00;99.90;;;;;;5075114;28;20919;-84
2021/06/23 03:01:27;;;;;;;27.30;23.60;;;14.00;99.90;;;;;;5077341;28;20464;-85
2021/06/23 03:03:55;;;;;;;28.40;23.90;;;14.00;99.90;;;;;;5083534;28;20791;-86
2021/06/23 03:06:23;;;;;;;30.63;23.20;;;14.00;99.90;;;;;;5090523;28;20457;-84
2021/06/23 03:08:50;;;;;;;30.43;21.80;;;13.90;99.90;;;;;;5090071;28;20978;-84
2021/06/23 03:11:17;;;;;;;28.77;23.60;;;13.90;99.90;;;;;;5078484;28;20436;-84
2021/06/23 03:13:44;;;;;;;26.03;22.57;;;13.90;99.90;;;;;;5073360;28;20447;-85
2021/06/23 03:16:11;;;;;;;36.30;25.63;;;13.90;99.90;;;;;;5079306;28;20493;-84
2021/06/23 03:18:38;;;;;;;30.73;23.87;;;13.90;99.90;;;;;;5089427;28;21124;-85
2021/06/23 03:21:09;;;;;;;26.70;23.30;;;13.90;99.90;;;;;;5088652;28;20492;-85
2021/06/23 03:23:36;;;;;;;31.57;23.23;;;13.90;99.90;;;;;;5090663;28;20551;-86
2021/06/23 03:26:03;;;;;;;30.50;22.97;;;13.90;99.90;;;;;;5077141;28;20486;-87
2021/06/23 03:28:30;;;;;;;26.70;23.50;;;13.90;99.90;;;;;;5081209;28;20454;-86
2021/06/23 03:30:57;;;;;;;33.23;23.37;;;13.90;99.90;;;;;;5085998;28;20464;-86
2021/06/23 03:33:24;;;;;;;24.60;21.90;;;13.90;99.90;;;;;;5084975;28;20462;-86
2021/06/23 03:35:51;;;;;;;28.20;23.00;;;13.90;99.90;;;;;;5089951;28;20476;-84
2021/06/23 03:38:19;;;;;;;30.10;24.23;;;13.90;99.90;;;;;;5081125;28;20810;-84
2021/06/23 03:40:46;;;;;;;27.40;22.10;;;13.90;99.90;;;;;;5060542;28;20438;-85
2021/06/23 03:43:13;;;;;;;31.13;23.60;;;13.90;99.90;;;;;;5089575;28;20456;-85
2021/06/23 03:45:40;;;;;;;24.97;21.00;;;13.90;99.90;;;;;;5083226;28;21023;-87
2021/06/23 03:48:08;;;;;;;27.77;22.70;;;13.90;99.90;;;;;;5090172;28;20949;-84
2021/06/23 03:50:35;;;;;;;25.07;21.60;;;13.90;99.90;;;;;;5089142;28;20452;-84
2021/06/23 03:53:02;;;;;;;25.00;22.23;;;13.90;99.90;;;;;;5060942;28;20835;-84
2021/06/23 03:55:30;;;;;;;26.73;21.63;;;13.90;99.90;;;;;;5077278;28;20482;-84
2021/06/23 03:57:59;;;;;;;26.47;21.90;;;13.90;99.90;;;;;;5074449;28;20998;-84
2021/06/23 04:00:29;;;;;;;24.47;21.77;;;13.90;99.90;;;;;;5090210;28;20441;-85
2021/06/23 04:02:57;;;;;;;26.33;21.40;;;13.90;99.90;;;;;;5071920;28;21439;-83
2021/06/23 04:05:25;;;;;;;26.27;22.30;;;13.80;99.90;;;;;;5084848;28;20483;-87
2021/06/23 04:07:52;;;;;;;26.57;22.90;;;13.80;99.90;;;;;;5066325;28;20442;-87
2021/06/23 04:10:19;;;;;;;24.00;21.50;;;13.80;99.90;;;;;;5078651;28;20541;-88
2021/06/23 04:12:47;;;;;;;25.43;22.10;;;13.80;99.90;;;;;;5073375;28;20449;-85
2021/06/23 04:15:16;;;;;;;26.40;22.27;;;13.80;99.90;;;;;;5093891;28;20991;-88
2021/06/23 04:17:43;;;;;;;28.63;21.70;;;13.80;99.90;;;;;;5083092;28;21083;-84
2021/06/23 04:20:11;;;;;;;28.33;20.67;;;13.80;99.90;;;;;;5089838;28;20468;-88
2021/06/23 04:22:38;;;;;;;25.10;21.23;;;13.80;99.90;;;;;;5096284;28;20439;-86
2021/06/23 04:25:08;;;;;;;25.40;21.30;;;13.80;99.90;;;;;;5092234;28;20476;-87
2021/06/23 04:27:35;;;;;;;26.00;22.73;;;13.90;99.90;;;;;;5086685;28;20462;-90
2021/06/23 04:30:08;;;;;;;23.70;21.03;;;13.90;99.90;;;;;;5066806;28;20794;-88
2021/06/23 04:32:35;;;;;;;28.07;23.43;;;13.90;99.90;;;;;;5058719;28;20459;-88
2021/06/23 04:35:05;;;;;;;27.93;21.77;;;13.90;99.90;;;;;;5064948;28;20984;-85
2021/06/23 04:37:32;;;;;;;23.37;20.87;;;13.90;99.90;;;;;;5073714;28;20448;-85
2021/06/23 04:39:59;;;;;;;25.40;22.70;;;14.00;99.90;;;;;;5072388;28;20443;-84
2021/06/23 04:42:26;;;;;;;26.30;22.17;;;13.90;99.90;;;;;;5073874;28;20463;-87
2021/06/23 04:44:53;;;;;;;25.00;22.30;;;14.00;99.90;;;;;;5075154;28;20914;-86
2021/06/23 04:47:21;;;;;;;24.40;21.40;;;14.00;99.90;;;;;;5067009;28;20457;-88
2021/06/23 04:49:48;;;;;;;29.30;23.97;;;14.00;99.90;;;;;;5053845;28;20462;-84
2021/06/23 04:52:16;;;;;;;26.40;21.50;;;14.00;99.90;;;;;;5066336;28;20420;-88
2021/06/23 04:54:43;;;;;;;25.37;22.37;;;14.00;99.90;;;;;;5044263;28;20464;-87
2021/06/23 04:57:10;;;;;;;26.10;22.00;;;14.00;99.90;;;;;;5072449;28;20462;-87
2021/06/23 04:59:37;;;;;;;25.30;22.60;;;14.00;99.90;;;;;;5071541;28;20463;-89
2021/06/23 05:02:04;;;;;;;24.70;22.20;;;14.00;99.90;;;;;;5070395;28;20455;-90
2021/06/23 05:04:33;;;;;;;27.87;22.07;;;14.00;99.90;;;;;;5073450;28;20469;-89
2021/06/23 05:07:02;;;;;;;23.53;20.90;;;14.10;99.90;;;;;;5061894;28;20553;-85
2021/06/23 05:09:29;;;;;;;24.00;21.17;;;14.00;99.90;;;;;;5059867;28;20948;-84
2021/06/23 05:11:56;;;;;;;23.10;20.70;;;14.00;99.90;;;;;;5070340;28;20940;-84
2021/06/23 05:14:23;;;;;;;24.63;21.60;;;14.00;99.90;;;;;;5071024;28;20457;-90
2021/06/23 05:16:51;;;;;;;24.37;21.47;;;14.00;99.90;;;;;;5072237;28;20549;-87
2021/06/23 05:19:18;;;;;;;25.83;22.47;;;14.10;99.90;;;;;;5066798;28;20555;-85
2021/06/23 05:21:49;;;;;;;24.93;21.10;;;14.10;99.90;;;;;;5048325;28;20467;-88
2021/06/23 05:30:04;;;;;;;28.57;22.10;;;14.10;99.90;;;;;;5040691;23;20494;-87
2021/06/23 05:32:31;;;;;;;24.83;22.20;;;14.10;99.90;;;;;;4895763;29;20467;-88
2021/06/23 05:34:58;;;;;;;24.30;21.70;;;14.10;99.90;;;;;;4894419;29;21935;-87
2021/06/23 05:37:27;;;;;;;23.83;20.83;;;14.10;99.90;;;;;;4892106;29;20451;-89
2021/06/23 05:39:54;;;;;;;24.63;21.10;;;14.20;99.90;;;;;;4893999;29;20468;-89
2021/06/23 05:42:21;;;;;;;23.70;20.73;;;14.20;99.90;;;;;;4895349;29;20440;-90
2021/06/23 05:44:48;;;;;;;31.10;24.17;;;14.20;99.90;;;;;;4892390;29;20463;-89
2021/06/23 05:47:17;;;;;;;22.60;20.20;;;14.20;99.90;;;;;;4867417;29;20487;-85
2021/06/23 05:49:44;;;;;;;23.97;21.30;;;14.20;99.90;;;;;;4889502;29;20451;-88
2021/06/23 05:52:11;;;;;;;30.20;23.30;;;14.30;99.90;;;;;;4882466;29;20459;-89
2021/06/23 05:54:39;;;;;;;34.43;22.30;;;14.30;99.90;;;;;;4895019;29;20448;-86
2021/06/23 05:57:07;;;;;;;25.17;22.20;;;14.30;99.90;;;;;;4895682;29;20488;-91
2021/06/23 05:59:36;;;;;;;26.23;22.10;;;14.40;99.90;;;;;;4892010;29;20469;-87
2021/06/23 06:02:04;;;;;;;25.30;22.60;;;14.40;99.90;;;;;;4895078;29;20968;-87
2021/06/23 06:04:31;;;;;;;25.40;22.80;;;14.40;99.90;;;;;;4883704;29;20463;-88
2021/06/23 06:06:58;;;;;;;26.53;23.57;;;14.40;99.90;;;;;;4890467;29;20480;-88
2021/06/23 06:09:25;;;;;;;28.20;22.63;;;14.40;99.90;;;;;;4885026;29;20523;-88
2021/06/23 06:11:53;;;;;;;23.77;21.10;;;14.50;99.90;;;;;;4869194;29;20806;-87
2021/06/23 06:14:20;;;;;;;26.03;22.70;;;14.50;99.90;;;;;;4892156;29;20437;-90
2021/06/23 06:16:47;;;;;;;25.77;21.53;;;14.50;99.90;;;;;;4888218;29;21357;-90
2021/06/23 06:19:23;;;;;;;29.10;22.63;;;14.50;99.90;;;;;;4882521;29;20459;-91
2021/06/23 06:21:50;;;;;;;28.33;24.47;;;14.60;99.90;;;;;;4895124;29;20498;-87
2021/06/23 06:24:17;;;;;;;24.83;22.33;;;14.60;99.90;;;;;;4894097;29;20464;-87
2021/06/23 06:26:44;;;;;;;28.00;21.50;;;14.60;99.90;;;;;;4885896;29;20483;-85
2021/06/23 06:29:12;;;;;;;25.33;22.67;;;14.60;99.90;;;;;;4894695;29;20492;-86
2021/06/23 06:31:41;;;;;;;23.57;21.03;;;14.60;99.90;;;;;;4887185;29;20455;-83
2021/06/23 06:34:08;;;;;;;24.07;21.60;;;14.60;99.90;;;;;;4873873;29;20483;-86
2021/06/23 06:36:35;;;;;;;24.23;19.93;;;14.60;99.90;;;;;;4885081;29;20495;-87
2021/06/23 06:39:02;;;;;;;26.43;22.70;;;14.50;99.90;;;;;;4892146;29;20435;-85
2021/06/23 06:41:29;;;;;;;22.13;19.83;;;14.50;99.90;;;;;;4895869;29;20442;-85
2021/06/23 06:43:55;;;;;;;22.27;19.77;;;14.60;99.90;;;;;;4892520;29;20709;-85
2021/06/23 06:46:25;;;;;;;22.77;19.93;;;14.60;99.90;;;;;;4885284;29;20472;-83
2021/06/23 06:48:52;;;;;;;25.40;22.70;;;14.50;99.90;;;;;;4893480;29;20465;-83
2021/06/23 06:51:19;;;;;;;25.13;22.47;;;14.50;99.90;;;;;;4888644;29;20470;-83
2021/06/23 06:53:46;;;;;;;28.73;22.00;;;14.50;99.90;;;;;;4895307;29;20458;-83
2021/06/23 06:56:13;;;;;;;35.43;24.17;;;14.50;99.90;;;;;;4895393;29;20502;-83
2021/06/23 06:58:40;;;;;;;26.17;21.63;;;14.50;99.90;;;;;;4896002;29;20469;-84
2021/06/23 07:01:07;;;;;;;24.20;21.67;;;14.50;99.90;;;;;;4893535;29;20451;-86
2021/06/23 07:03:35;;;;;;;25.10;22.40;;;14.50;99.90;;;;;;4894236;29;20475;-83
2021/06/23 07:08:37;;;;;;;24.37;21.97;;;14.40;99.90;;;;;;5798064;23;20503;-83
2021/06/23 07:11:04;;;;;;;25.80;23.30;;;14.40;99.90;;;;;;4891897;29;20468;-87
2021/06/23 07:13:31;;;;;;;27.13;22.40;;;14.40;99.90;;;;;;4893805;29;20468;-83
2021/06/23 07:15:58;;;;;;;24.43;21.77;;;14.40;99.90;;;;;;4891582;29;20480;-84
2021/06/23 07:18:25;;;;;;;24.10;21.70;;;14.40;99.90;;;;;;4891035;29;20704;-85
2021/06/23 07:20:53;;;;;;;27.80;24.90;;;14.40;99.90;;;;;;4895114;29;20448;-86
2021/06/23 07:23:20;;;;;;;26.30;23.50;;;14.50;99.90;;;;;;4892227;29;20996;-87
2021/06/23 07:25:47;;;;;;;26.77;23.10;;;14.40;99.90;;;;;;4890915;29;20487;-85
2021/06/23 07:28:18;;;;;;;28.30;23.87;;;14.40;99.90;;;;;;4897386;29;20455;-90
2021/06/23 07:30:47;;;;;;;27.30;24.10;;;14.40;99.90;;;;;;4874810;29;20476;-84
2021/06/23 07:33:14;;;;;;;27.90;24.87;;;14.40;99.90;;;;;;4896572;29;20459;-85
2021/06/23 07:38:24;;;;;;;26.43;23.70;;;14.40;99.90;;;;;;4891136;29;20952;-86
2021/06/23 07:40:53;;;;;;;24.23;22.03;;;14.50;99.90;;;;;;4893595;29;20458;-84
2021/06/23 07:43:20;;;;;;;25.87;21.53;;;14.50;99.90;;;;;;4894711;29;20464;-85
2021/06/23 07:49:20;;;;;;;23.70;21.50;;;14.50;99.90;;;;;;4800726;29;20499;-89
2021/06/23 08:18:37;;;;;;;20.80;18.80;;;14.90;99.90;;;;;;5222951;23;20485;-86
2021/06/23 08:27:42;;;;;;;23.87;21.43;;;15.00;99.90;;;;;;5820657;23;20476;-87
2021/06/23 08:34:25;;;;;;;;;;;;;;;;;;;;;
2021/06/23 08:40:25;;;;;;;20.63;18.43;;;15.10;99.90;;;;;;4809961;29;20436;-87
2021/06/23 08:42:52;;;;;;;21.23;18.90;;;15.20;99.90;;;;;;4886430;29;20797;-83
2021/06/23 08:45:19;;;;;;;20.47;18.37;;;15.20;99.90;;;;;;4915000;29;20482;-87
2021/06/23 08:47:48;;;;;;;21.63;19.60;;;15.20;99.90;;;;;;4934147;29;20898;-88
2021/06/23 08:50:17;;;;;;;23.40;20.93;;;15.20;99.90;;;;;;4912606;29;20462;-87
2021/06/23 08:52:44;;;;;;;23.10;20.60;;;15.20;99.90;;;;;;4931419;29;20443;-90
2021/06/23 08:55:13;;;;;;;21.27;19.20;;;15.20;99.90;;;;;;4897693;29;20455;-87
2021/06/23 08:57:41;;;;;;;21.53;18.90;;;15.30;99.90;;;;;;4924473;29;20977;-86
2021/06/23 09:00:09;;;;;;;18.77;17.03;;;15.30;99.90;;;;;;4933574;29;20452;-90
2021/06/23 09:02:37;;;;;;;22.53;18.63;;;15.40;99.90;;;;;;4938231;29;20429;-85
2021/06/23 09:05:08;;;;;;;20.63;18.60;;;15.50;99.90;;;;;;4926936;29;20453;-84
2021/06/23 09:07:40;;;;;;;21.07;18.77;;;15.60;99.90;;;;;;4919882;29;20920;-85
2021/06/23 09:10:09;;;;;;;21.03;18.80;;;15.60;99.90;;;;;;4927081;29;20935;-83
2021/06/23 09:12:36;;;;;;;22.20;18.93;;;15.70;99.90;;;;;;4897587;29;20460;-86
2021/06/23 09:15:06;;;;;;;20.27;18.37;;;15.70;99.90;;;;;;4936695;29;20445;-89
2021/06/23 09:17:33;;;;;;;19.50;16.70;;;15.80;99.90;;;;;;4934092;29;20477;-86
2021/06/23 09:20:02;;;;;;;19.70;17.47;;;15.80;99.90;;;;;;4936326;29;20430;-84
2021/06/23 09:22:34;;;;;;;20.50;18.00;;;15.80;99.90;;;;;;4934653;29;20502;-87
2021/06/23 09:25:01;;;;;;;19.83;17.20;;;15.80;99.90;;;;;;4918306;29;20479;-84
2021/06/23 09:27:30;;;;;;;17.40;15.63;;;15.90;99.90;;;;;;4921634;29;20504;-82
2021/06/23 09:30:26;;;;;;;21.00;17.53;;;15.90;99.90;;;;;;4924346;29;22567;-87
2021/06/23 09:33:07;;;;;;;22.00;18.70;;;15.90;99.90;;;;;;4910507;29;20437;-87
2021/06/23 09:35:35;;;;;;;18.30;15.43;;;15.80;99.90;;;;;;4902673;29;20441;-86
2021/06/23 09:38:02;;;;;;;18.70;16.60;;;15.80;99.90;;;;;;4935114;29;20469;-83
2021/06/23 09:40:30;;;;;;;18.83;15.83;;;15.80;99.90;;;;;;4911269;29;20453;-87
2021/06/23 09:43:01;;;;;;;17.73;15.97;;;15.80;99.90;;;;;;4918400;29;20462;-86
2021/06/23 09:45:31;;;;;;;18.20;16.30;;;15.90;99.90;;;;;;4928763;29;20485;-85
2021/06/23 09:47:59;;;;;;;18.00;16.30;;;15.90;99.90;;;;;;4920145;29;20454;-87
2021/06/23 09:50:28;;;;;;;18.30;16.33;;;16.00;99.90;;;;;;4930442;29;20948;-85
2021/06/23 09:52:56;;;;;;;19.03;17.03;;;16.00;99.90;;;;;;4931036;29;20443;-84
2021/06/23 09:55:34;;;;;;;21.53;17.40;;;16.10;99.90;;;;;;4934656;29;20452;-87
2021/06/23 09:58:11;;;;;;;21.10;16.80;;;16.20;99.90;;;;;;4928330;29;20967;-89
2021/06/23 10:00:58;;;;;;;19.27;16.17;;;16.20;99.90;;;;;;4935747;29;20467;-85
2021/06/23 10:03:25;;;;;;;18.47;16.30;;;16.30;99.90;;;;;;4903430;29;20435;-87
2021/06/23 10:05:52;;;;;;;17.70;15.90;;;16.40;99.90;;;;;;4907290;29;20831;-89
2021/06/23 10:08:23;;;;;;;18.33;16.43;;;16.50;99.90;;;;;;4936540;29;20459;-87
2021/06/23 10:10:51;;;;;;;19.20;17.20;;;16.50;99.90;;;;;;4919330;29;20456;-84
2021/06/23 10:13:19;;;;;;;19.70;16.93;;;16.70;99.90;;;;;;4905771;29;20522;-84
2021/06/23 10:15:48;;;;;;;21.53;16.90;;;16.70;99.90;;;;;;4930239;29;20833;-85
2021/06/23 10:18:18;;;;;;;19.70;17.10;;;16.80;99.90;;;;;;4915651;29;20488;-85
2021/06/23 10:20:46;;;;;;;20.03;17.97;;;16.80;99.90;;;;;;4926239;29;20969;-86
2021/06/23 10:23:13;;;;;;;19.63;17.77;;;16.90;99.90;;;;;;4931191;29;20476;-85
2021/06/23 10:25:41;;;;;;;19.77;17.77;;;16.90;99.90;;;;;;4933780;29;20464;-86
2021/06/23 10:28:10;;;;;;;21.77;17.00;;;16.90;99.90;;;;;;4934631;29;20496;-85
2021/06/23 10:30:38;;;;;;;17.77;15.90;;;17.00;99.90;;;;;;4922634;29;20466;-84
2021/06/23 10:33:05;;;;;;;18.67;16.87;;;17.00;99.90;;;;;;4914455;29;20453;-85
2021/06/23 10:35:34;;;;;;;18.33;16.43;;;17.00;99.90;;;;;;4933285;29;20474;-85
2021/06/23 10:38:02;;;;;;;19.90;16.40;;;16.90;99.90;;;;;;4923183;29;20497;-84
2021/06/23 10:40:30;;;;;;;17.90;16.20;;;16.90;99.90;;;;;;4931273;29;20465;-86
2021/06/23 10:43:12;;;;;;;18.53;16.73;;;16.90;99.90;;;;;;4927888;29;20466;-84
2021/06/23 10:45:43;;;;;;;18.00;16.30;;;16.90;99.90;;;;;;4910286;29;20491;-87
2021/06/23 10:48:11;;;;;;;17.43;15.90;;;16.90;99.90;;;;;;4911671;29;20477;-86
2021/06/23 10:50:40;;;;;;;24.53;18.50;;;16.90;99.90;;;;;;4924810;29;20490;-86
2021/06/23 10:53:30;;;;;;;19.07;16.97;;;16.90;99.90;;;;;;4915795;29;20530;-87
2021/06/23 10:55:58;;;;;;;17.90;16.00;;;16.90;99.90;;;;;;4920089;29;20496;-85
2021/06/23 10:58:29;;;;;;;17.70;15.90;;;16.90;99.90;;;;;;4922731;29;21017;-86
2021/06/23 11:01:07;;;;;;;23.37;16.97;;;16.90;99.90;;;;;;4905056;29;20458;-86
2021/06/23 11:03:58;;;;;;;18.80;17.00;;;16.90;99.90;;;;;;4933365;29;20451;-87
2021/06/23 11:06:44;;;;;;;23.70;17.60;;;16.80;99.90;;;;;;4928123;29;20511;-90
2021/06/23 11:09:27;;;;;;;26.60;18.57;;;16.80;99.90;;;;;;4900079;29;20541;-89
2021/06/23 11:11:54;;;;;;;21.13;18.80;;;16.80;99.90;;;;;;4898722;29;20878;-90
2021/06/23 11:14:22;;;;;;;19.47;17.27;;;16.70;99.90;;;;;;4913959;29;20821;-88
2021/06/23 11:16:50;;;;;;;19.57;17.47;;;16.70;99.90;;;;;;4898973;29;20476;-88
2021/06/23 11:19:18;;;;;;;18.70;16.90;;;16.70;99.90;;;;;;4926585;29;20461;-88
2021/06/23 11:21:47;;;;;;;21.50;18.63;;;16.70;99.90;;;;;;4914305;29;20449;-88
2021/06/23 11:24:16;;;;;;;18.63;16.30;;;16.60;99.90;;;;;;4931556;29;20469;-91
2021/06/23 11:27:00;;;;;;;18.63;16.77;;;16.70;99.90;;;;;;4928800;29;20486;-85
2021/06/23 11:29:31;;;;;;;18.40;16.50;;;16.80;99.90;;;;;;4917780;29;20442;-85
2021/06/23 11:32:03;;;;;;;16.63;15.00;;;16.90;99.90;;;;;;4926618;29;20470;-85
2021/06/23 11:34:53;;;;;;;17.50;15.20;;;17.00;99.90;;;;;;4907361;29;20458;-86
2021/06/23 11:37:23;;;;;;;16.97;15.17;;;17.10;99.90;;;;;;4913494;29;20503;-86
2021/06/23 11:39:50;;;;;;;16.60;14.90;;;17.20;99.90;;;;;;4913180;29;20438;-84
2021/06/23 11:42:19;;;;;;;20.80;16.53;;;17.30;99.90;;;;;;4926859;29;20469;-85
2021/06/23 11:44:46;;;;;;;17.63;14.87;;;17.30;99.90;;;;;;4930306;29;20493;-85
2021/06/23 11:47:13;;;;;;;19.73;14.90;;;17.40;99.90;;;;;;4914667;29;20471;-86
2021/06/23 11:49:42;;;;;;;15.87;14.43;;;17.50;99.90;;;;;;4925300;29;20490;-85
2021/06/23 11:52:10;;;;;;;16.47;14.77;;;17.50;99.90;;;;;;4912176;29;20463;-87
2021/06/23 11:54:39;;;;;;;17.47;15.60;;;17.60;99.90;;;;;;4918337;29;20498;-85
2021/06/23 11:57:07;;;;;;;16.87;15.20;;;17.70;99.90;;;;;;4913088;29;20498;-87
2021/06/23 11:59:36;;;;;;;18.00;14.77;;;17.70;99.90;;;;;;4928233;29;20967;-87
2021/06/23 12:02:03;;;;;;;15.47;13.83;;;17.70;99.90;;;;;;4930227;29;20450;-87
2021/06/23 12:04:31;;;;;;;23.27;15.17;;;17.70;99.90;;;;;;4930413;29;20467;-88
2021/06/23 12:06:58;;;;;;;14.47;13.17;;;17.70;99.90;;;;;;4921753;29;20478;-89
2021/06/23 12:09:25;;;;;;;14.30;12.83;;;17.70;99.90;;;;;;4932608;29;20979;-88
2021/06/23 12:11:54;;;;;;;16.40;14.10;;;17.80;99.90;;;;;;4933265;29;20443;-90
2021/06/23 12:14:21;;;;;;;17.13;13.90;;;17.80;99.90;;;;;;4925454;29;20500;-87
2021/06/23 12:16:49;;;;;;;16.33;13.67;;;17.80;99.90;;;;;;4934755;29;20513;-88
2021/06/23 12:19:16;;;;;;;14.40;12.90;;;17.90;99.90;;;;;;4938662;29;20458;-87
2021/06/23 12:21:44;;;;;;;16.67;13.17;;;17.90;99.90;;;;;;4936936;29;20468;-91
2021/06/23 12:24:11;;;;;;;14.87;13.37;;;18.00;99.90;;;;;;4932113;29;21171;-91
2021/06/23 12:26:37;;;;;;;16.37;13.00;;;18.00;99.90;;;;;;4929311;29;20508;-89
2021/06/23 12:29:06;;;;;;;15.77;12.30;;;18.00;99.90;;;;;;4933907;29;20485;-90
2021/06/23 12:31:33;;;;;;;15.53;14.03;;;18.00;99.90;;;;;;4931132;29;20458;-90
2021/06/23 12:33:59;;;;;;;13.90;12.60;;;18.10;99.90;;;;;;4929997;29;20469;-89
2021/06/23 12:36:26;;;;;;;14.63;13.33;;;18.20;99.90;;;;;;4936541;29;20494;-90
2021/06/23 12:38:53;;;;;;;14.00;12.60;;;18.20;99.90;;;;;;4931277;29;20497;-89
2021/06/23 12:41:21;;;;;;;16.10;14.30;;;18.30;99.90;;;;;;4935173;29;20738;-88
2021/06/23 12:43:48;;;;;;;13.77;12.40;;;18.30;99.90;;;;;;4932617;29;20469;-89
2021/06/23 12:46:16;;;;;;;16.83;13.30;;;18.30;99.90;;;;;;4921770;29;20478;-90
2021/06/23 12:48:43;;;;;;;16.60;11.63;;;18.30;99.90;;;;;;4933611;29;20445;-90
2021/06/23 12:51:10;;;;;;;13.23;11.83;;;18.30;99.90;;;;;;4932461;29;20477;-90
2021/06/23 12:53:36;;;;;;;15.30;12.60;;;18.30;99.90;;;;;;4904636;29;21439;-90
2021/06/23 12:56:04;;;;;;;13.43;12.03;;;18.30;99.90;;;;;;4924243;29;20489;-90
2021/06/23 12:58:31;;;;;;;15.30;12.80;;;18.40;99.90;;;;;;4935006;29;20482;-89
2021/06/23 13:00:58;;;;;;;16.70;12.83;;;18.40;99.90;;;;;;4933671;29;20466;-89
2021/06/23 13:03:26;;;;;;;15.03;13.53;;;18.40;99.90;;;;;;4933838;29;20450;-88
2021/06/23 13:05:57;;;;;;;19.27;12.43;;;18.40;99.90;;;;;;4930674;29;20478;-87
2021/06/23 13:08:24;;;;;;;15.67;14.17;;;18.40;99.90;;;;;;4931692;29;20911;-92
2021/06/23 13:10:51;;;;;;;13.37;11.97;;;18.40;99.90;;;;;;4934837;29;20537;-89
2021/06/23 13:13:18;;;;;;;12.87;11.07;;;18.40;99.90;;;;;;4927936;29;21004;-91
2021/06/23 13:15:46;;;;;;;15.90;12.90;;;18.50;99.90;;;;;;4934875;29;20477;-90
2021/06/23 13:18:12;;;;;;;14.27;12.40;;;18.50;99.90;;;;;;4931507;29;20510;-88
2021/06/23 13:20:42;;;;;;;17.83;12.90;;;18.50;99.90;;;;;;4923995;29;20474;-88
2021/06/23 13:23:09;;;;;;;14.97;13.30;;;18.50;99.90;;;;;;4916379;29;20463;-88
2021/06/23 13:25:36;;;;;;;15.90;13.07;;;;;;;;;;4935171;29;20545;-86
2021/06/23 13:28:03;;;;;;;16.40;13.00;;;18.60;99.90;;;;;;4926551;29;20482;-87
2021/06/23 13:30:30;;;;;;;13.10;11.90;;;18.60;99.90;;;;;;4926515;29;20462;-88
2021/06/23 13:32:57;;;;;;;15.73;13.40;;;18.60;99.90;;;;;;4930753;29;20466;-88